sensor_id;sensor_type;location;lat;lon;timestamp;P1;durP1;ratioP1;P2;durP2;ratioP2
63218;SDS011;49320;52.512;13.448;2022-07-01T00:02:04;7.78;;;6.50;;
63218;SDS011;49320;52.512;13.448;2022-07-01T00:04:31;6.93;;;6.32;;
63218;SDS011;49320;52.512;13.448;2022-07-01T00:06:58;6.88;;;6.28;;
63218;SDS011;49320;52.512;13.448;2022-07-01T00:09:25;7.40;;;6.20;;
63218;SDS011;49320;52.512;13.448;2022-07-01T00:11:53;7.40;;;6.75;;
63218;SDS011;49320;52.512;13.448;2022-07-01T00:14:20;6.72;;;6.13;;
63218;SDS011;49320;52.512;13.448;2022-07-01T00:16:49;7.18;;;6.53;;
63218;SDS011;49320;52.512;13.448;2022-07-01T00:19:17;8.15;;;6.85;;
63218;SDS011;49320;52.512;13.448;2022-07-01T00:21:44;7.68;;;6.95;;
63218;SDS011;49320;52.512;13.448;2022-07-01T00:24:11;7.90;;;7.15;;
63218;SDS011;49320;52.512;13.448;2022-07-01T00:26:38;7.95;;;7.25;;
63218;SDS011;49320;52.512;13.448;2022-07-01T00:29:05;8.48;;;7.72;;
63218;SDS011;49320;52.512;13.448;2022-07-01T00:31:31;8.30;;;7.50;;
63218;SDS011;49320;52.512;13.448;2022-07-01T00:33:58;7.65;;;6.82;;
63218;SDS011;49320;52.512;13.448;2022-07-01T00:36:25;7.78;;;7.07;;
63218;SDS011;49320;52.512;13.448;2022-07-01T00:38:56;7.60;;;6.90;;
63218;SDS011;49320;52.512;13.448;2022-07-01T00:41:24;8.80;;;7.90;;
63218;SDS011;49320;52.512;13.448;2022-07-01T00:43:51;7.88;;;7.10;;
63218;SDS011;49320;52.512;13.448;2022-07-01T00:46:20;7.88;;;7.18;;
63218;SDS011;49320;52.512;13.448;2022-07-01T00:48:48;8.60;;;7.80;;
63218;SDS011;49320;52.512;13.448;2022-07-01T00:51:17;7.43;;;6.72;;
63218;SDS011;49320;52.512;13.448;2022-07-01T00:53:46;8.90;;;8.10;;
63218;SDS011;49320;52.512;13.448;2022-07-01T00:56:13;8.98;;;7.45;;
63218;SDS011;49320;52.512;13.448;2022-07-01T00:58:41;8.13;;;7.43;;
63218;SDS011;49320;52.512;13.448;2022-07-01T01:01:08;8.50;;;7.68;;
63218;SDS011;49320;52.512;13.448;2022-07-01T01:03:36;9.70;;;8.70;;
63218;SDS011;49320;52.512;13.448;2022-07-01T01:06:04;8.65;;;7.82;;
63218;SDS011;49320;52.512;13.448;2022-07-01T01:08:30;9.18;;;8.38;;
63218;SDS011;49320;52.512;13.448;2022-07-01T01:10:57;8.45;;;7.65;;
63218;SDS011;49320;52.512;13.448;2022-07-01T01:13:25;9.38;;;8.23;;
63218;SDS011;49320;52.512;13.448;2022-07-01T01:15:52;9.65;;;8.75;;
63218;SDS011;49320;52.512;13.448;2022-07-01T01:18:19;9.57;;;8.70;;
63218;SDS011;49320;52.512;13.448;2022-07-01T01:20:46;9.00;;;8.20;;
63218;SDS011;49320;52.512;13.448;2022-07-01T01:23:13;8.85;;;7.95;;
63218;SDS011;49320;52.512;13.448;2022-07-01T01:25:40;9.15;;;8.35;;
63218;SDS011;49320;52.512;13.448;2022-07-01T01:28:07;8.18;;;7.38;;
63218;SDS011;49320;52.512;13.448;2022-07-01T01:30:33;10.30;;;9.40;;
63218;SDS011;49320;52.512;13.448;2022-07-01T01:33:01;9.60;;;8.70;;
63218;SDS011;49320;52.512;13.448;2022-07-01T01:35:29;9.93;;;9.02;;
63218;SDS011;49320;52.512;13.448;2022-07-01T01:37:57;9.15;;;8.25;;
63218;SDS011;49320;52.512;13.448;2022-07-01T01:40:24;9.65;;;8.70;;
63218;SDS011;49320;52.512;13.448;2022-07-01T01:42:51;8.95;;;8.05;;
63218;SDS011;49320;52.512;13.448;2022-07-01T01:45:18;9.68;;;8.70;;
63218;SDS011;49320;52.512;13.448;2022-07-01T01:47:45;9.32;;;8.43;;
63218;SDS011;49320;52.512;13.448;2022-07-01T01:50:12;9.30;;;8.10;;
63218;SDS011;49320;52.512;13.448;2022-07-01T01:52:41;9.30;;;8.48;;
63218;SDS011;49320;52.512;13.448;2022-07-01T01:55:11;9.93;;;9.02;;
63218;SDS011;49320;52.512;13.448;2022-07-01T01:57:39;10.85;;;9.85;;
63218;SDS011;49320;52.512;13.448;2022-07-01T02:00:06;10.13;;;9.23;;
63218;SDS011;49320;52.512;13.448;2022-07-01T02:02:34;10.80;;;9.80;;
63218;SDS011;49320;52.512;13.448;2022-07-01T02:05:07;10.23;;;9.23;;
63218;SDS011;49320;52.512;13.448;2022-07-01T02:07:38;10.50;;;9.60;;
63218;SDS011;49320;52.512;13.448;2022-07-01T02:10:06;9.75;;;8.85;;
63218;SDS011;49320;52.512;13.448;2022-07-01T02:12:34;10.25;;;8.98;;
63218;SDS011;49320;52.512;13.448;2022-07-01T02:15:00;10.07;;;9.18;;
63218;SDS011;49320;52.512;13.448;2022-07-01T02:17:27;10.30;;;9.35;;
63218;SDS011;49320;52.512;13.448;2022-07-01T02:19:54;11.02;;;9.93;;
63218;SDS011;49320;52.512;13.448;2022-07-01T02:22:21;10.82;;;9.73;;
63218;SDS011;49320;52.512;13.448;2022-07-01T02:24:48;12.05;;;10.93;;
63218;SDS011;49320;52.512;13.448;2022-07-01T02:27:15;10.68;;;9.70;;
63218;SDS011;49320;52.512;13.448;2022-07-01T02:29:42;11.10;;;10.10;;
63218;SDS011;49320;52.512;13.448;2022-07-01T02:32:08;10.60;;;9.70;;
63218;SDS011;49320;52.512;13.448;2022-07-01T02:34:35;11.43;;;10.27;;
63218;SDS011;49320;52.512;13.448;2022-07-01T02:37:03;11.73;;;10.50;;
63218;SDS011;49320;52.512;13.448;2022-07-01T02:39:31;11.93;;;10.82;;
63218;SDS011;49320;52.512;13.448;2022-07-01T02:41:58;11.38;;;10.27;;
63218;SDS011;49320;52.512;13.448;2022-07-01T02:44:44;11.93;;;10.60;;
63218;SDS011;49320;52.512;13.448;2022-07-01T02:47:11;11.98;;;10.77;;
63218;SDS011;49320;52.512;13.448;2022-07-01T02:49:38;11.35;;;10.15;;
63218;SDS011;49320;52.512;13.448;2022-07-01T02:52:05;11.93;;;10.77;;
63218;SDS011;49320;52.512;13.448;2022-07-01T02:54:32;11.88;;;10.68;;
63218;SDS011;49320;52.512;13.448;2022-07-01T02:56:59;11.60;;;10.50;;
63218;SDS011;49320;52.512;13.448;2022-07-01T02:59:27;11.73;;;10.52;;
63218;SDS011;49320;52.512;13.448;2022-07-01T03:01:55;12.75;;;11.45;;
63218;SDS011;49320;52.512;13.448;2022-07-01T03:04:21;11.32;;;10.23;;
63218;SDS011;49320;52.512;13.448;2022-07-01T03:06:49;12.48;;;11.27;;
63218;SDS011;49320;52.512;13.448;2022-07-01T03:09:15;10.75;;;9.63;;
63218;SDS011;49320;52.512;13.448;2022-07-01T03:11:42;11.20;;;10.10;;
63218;SDS011;49320;52.512;13.448;2022-07-01T03:14:10;12.90;;;11.70;;
63218;SDS011;49320;52.512;13.448;2022-07-01T03:16:37;11.95;;;10.80;;
63218;SDS011;49320;52.512;13.448;2022-07-01T03:19:04;11.98;;;10.88;;
63218;SDS011;49320;52.512;13.448;2022-07-01T03:21:31;11.10;;;10.10;;
63218;SDS011;49320;52.512;13.448;2022-07-01T03:23:59;12.27;;;11.18;;
63218;SDS011;49320;52.512;13.448;2022-07-01T03:26:26;11.63;;;10.55;;
63218;SDS011;49320;52.512;13.448;2022-07-01T03:28:52;11.68;;;10.68;;
63218;SDS011;49320;52.512;13.448;2022-07-01T03:31:19;13.13;;;11.63;;
63218;SDS011;49320;52.512;13.448;2022-07-01T03:33:46;13.00;;;11.70;;
63218;SDS011;49320;52.512;13.448;2022-07-01T03:36:13;12.10;;;11.00;;
63218;SDS011;49320;52.512;13.448;2022-07-01T03:38:40;12.93;;;11.73;;
63218;SDS011;49320;52.512;13.448;2022-07-01T03:41:07;11.38;;;10.27;;
63218;SDS011;49320;52.512;13.448;2022-07-01T03:43:33;13.02;;;11.80;;
63218;SDS011;49320;52.512;13.448;2022-07-01T03:46:00;12.45;;;11.35;;
63218;SDS011;49320;52.512;13.448;2022-07-01T03:48:27;12.13;;;11.00;;
63218;SDS011;49320;52.512;13.448;2022-07-01T03:50:54;12.82;;;11.63;;
63218;SDS011;49320;52.512;13.448;2022-07-01T03:53:21;12.90;;;11.70;;
63218;SDS011;49320;52.512;13.448;2022-07-01T03:56:06;13.65;;;12.35;;
63218;SDS011;49320;52.512;13.448;2022-07-01T03:58:33;12.88;;;11.63;;
63218;SDS011;49320;52.512;13.448;2022-07-01T04:01:00;13.30;;;12.10;;
63218;SDS011;49320;52.512;13.448;2022-07-01T04:03:27;13.98;;;12.68;;
63218;SDS011;49320;52.512;13.448;2022-07-01T04:05:54;13.27;;;12.00;;
63218;SDS011;49320;52.512;13.448;2022-07-01T04:08:20;13.73;;;12.43;;
63218;SDS011;49320;52.512;13.448;2022-07-01T04:10:48;12.90;;;11.68;;
63218;SDS011;49320;52.512;13.448;2022-07-01T04:13:16;12.90;;;11.60;;
63218;SDS011;49320;52.512;13.448;2022-07-01T04:15:58;13.38;;;12.18;;
63218;SDS011;49320;52.512;13.448;2022-07-01T04:18:28;13.43;;;12.18;;
63218;SDS011;49320;52.512;13.448;2022-07-01T04:20:55;12.43;;;11.23;;
63218;SDS011;49320;52.512;13.448;2022-07-01T04:23:42;13.35;;;12.05;;
63218;SDS011;49320;52.512;13.448;2022-07-01T04:26:09;13.02;;;11.82;;
63218;SDS011;49320;52.512;13.448;2022-07-01T04:28:56;11.93;;;10.82;;
63218;SDS011;49320;52.512;13.448;2022-07-01T04:31:22;13.15;;;11.95;;
63218;SDS011;49320;52.512;13.448;2022-07-01T04:33:49;12.90;;;11.73;;
63218;SDS011;49320;52.512;13.448;2022-07-01T04:36:16;13.25;;;11.95;;
63218;SDS011;49320;52.512;13.448;2022-07-01T04:38:44;13.30;;;12.00;;
63218;SDS011;49320;52.512;13.448;2022-07-01T04:41:11;12.90;;;11.75;;
63218;SDS011;49320;52.512;13.448;2022-07-01T04:43:56;12.95;;;11.75;;
63218;SDS011;49320;52.512;13.448;2022-07-01T04:46:23;13.10;;;11.98;;
63218;SDS011;49320;52.512;13.448;2022-07-01T04:48:50;13.90;;;12.60;;
63218;SDS011;49320;52.512;13.448;2022-07-01T04:51:17;13.50;;;12.30;;
63218;SDS011;49320;52.512;13.448;2022-07-01T04:53:44;13.95;;;12.68;;
63218;SDS011;49320;52.512;13.448;2022-07-01T04:56:11;13.95;;;12.57;;
63218;SDS011;49320;52.512;13.448;2022-07-01T04:58:38;13.80;;;12.60;;
63218;SDS011;49320;52.512;13.448;2022-07-01T05:01:04;13.50;;;12.30;;
63218;SDS011;49320;52.512;13.448;2022-07-01T05:03:31;13.63;;;12.23;;
63218;SDS011;49320;52.512;13.448;2022-07-01T05:05:58;14.60;;;13.18;;
63218;SDS011;49320;52.512;13.448;2022-07-01T05:08:25;14.43;;;13.02;;
63218;SDS011;49320;52.512;13.448;2022-07-01T05:10:52;14.40;;;12.90;;
63218;SDS011;49320;52.512;13.448;2022-07-01T05:13:19;13.55;;;12.25;;
63218;SDS011;49320;52.512;13.448;2022-07-01T05:15:46;14.35;;;13.05;;
63218;SDS011;49320;52.512;13.448;2022-07-01T05:18:13;14.57;;;13.18;;
63218;SDS011;49320;52.512;13.448;2022-07-01T05:21:00;13.90;;;12.57;;
63218;SDS011;49320;52.512;13.448;2022-07-01T05:23:45;13.93;;;12.68;;
63218;SDS011;49320;52.512;13.448;2022-07-01T05:26:12;14.73;;;13.32;;
63218;SDS011;49320;52.512;13.448;2022-07-01T05:28:44;14.50;;;13.18;;
63218;SDS011;49320;52.512;13.448;2022-07-01T05:31:13;14.18;;;12.77;;
63218;SDS011;49320;52.512;13.448;2022-07-01T05:33:41;14.02;;;12.73;;
63218;SDS011;49320;52.512;13.448;2022-07-01T05:36:08;14.35;;;13.05;;
63218;SDS011;49320;52.512;13.448;2022-07-01T05:38:35;15.02;;;13.48;;
63218;SDS011;49320;52.512;13.448;2022-07-01T05:41:04;13.98;;;12.70;;
63218;SDS011;49320;52.512;13.448;2022-07-01T05:43:31;14.27;;;12.98;;
63218;SDS011;49320;52.512;13.448;2022-07-01T05:45:59;13.23;;;11.93;;
63218;SDS011;49320;52.512;13.448;2022-07-01T05:48:27;14.00;;;12.70;;
63218;SDS011;49320;52.512;13.448;2022-07-01T05:50:54;14.07;;;12.73;;
63218;SDS011;49320;52.512;13.448;2022-07-01T05:53:21;14.00;;;12.65;;
63218;SDS011;49320;52.512;13.448;2022-07-01T05:55:48;14.27;;;12.90;;
63218;SDS011;49320;52.512;13.448;2022-07-01T05:58:15;13.57;;;12.18;;
63218;SDS011;49320;52.512;13.448;2022-07-01T06:00:42;13.95;;;12.15;;
63218;SDS011;49320;52.512;13.448;2022-07-01T06:03:10;12.80;;;11.68;;
63218;SDS011;49320;52.512;13.448;2022-07-01T06:05:38;12.98;;;11.77;;
63218;SDS011;49320;52.512;13.448;2022-07-01T06:08:06;13.32;;;11.98;;
63218;SDS011;49320;52.512;13.448;2022-07-01T06:10:33;12.45;;;11.00;;
63218;SDS011;49320;52.512;13.448;2022-07-01T06:13:02;11.90;;;10.75;;
63218;SDS011;49320;52.512;13.448;2022-07-01T06:15:30;11.98;;;10.88;;
63218;SDS011;49320;52.512;13.448;2022-07-01T06:17:58;12.52;;;11.48;;
63218;SDS011;49320;52.512;13.448;2022-07-01T06:20:25;12.48;;;11.23;;
63218;SDS011;49320;52.512;13.448;2022-07-01T06:22:52;12.93;;;11.25;;
63218;SDS011;49320;52.512;13.448;2022-07-01T06:25:19;11.70;;;10.70;;
63218;SDS011;49320;52.512;13.448;2022-07-01T06:27:45;13.15;;;11.88;;
63218;SDS011;49320;52.512;13.448;2022-07-01T06:30:12;12.45;;;11.30;;
63218;SDS011;49320;52.512;13.448;2022-07-01T06:32:39;12.05;;;10.95;;
63218;SDS011;49320;52.512;13.448;2022-07-01T06:35:07;12.75;;;11.65;;
63218;SDS011;49320;52.512;13.448;2022-07-01T06:37:34;12.77;;;11.57;;
63218;SDS011;49320;52.512;13.448;2022-07-01T06:40:02;13.23;;;11.88;;
63218;SDS011;49320;52.512;13.448;2022-07-01T06:42:31;13.75;;;12.43;;
63218;SDS011;49320;52.512;13.448;2022-07-01T06:44:59;13.23;;;12.13;;
63218;SDS011;49320;52.512;13.448;2022-07-01T06:47:27;13.30;;;12.05;;
63218;SDS011;49320;52.512;13.448;2022-07-01T06:49:54;13.18;;;11.88;;
63218;SDS011;49320;52.512;13.448;2022-07-01T06:52:25;13.80;;;12.43;;
63218;SDS011;49320;52.512;13.448;2022-07-01T06:54:52;14.07;;;12.73;;
63218;SDS011;49320;52.512;13.448;2022-07-01T06:57:19;12.43;;;11.43;;
63218;SDS011;49320;52.512;13.448;2022-07-01T06:59:46;13.32;;;11.95;;
63218;SDS011;49320;52.512;13.448;2022-07-01T07:02:13;14.02;;;12.77;;
63218;SDS011;49320;52.512;13.448;2022-07-01T07:04:39;13.02;;;11.82;;
63218;SDS011;49320;52.512;13.448;2022-07-01T07:07:26;13.55;;;12.05;;
63218;SDS011;49320;52.512;13.448;2022-07-01T07:09:54;12.32;;;11.23;;
63218;SDS011;49320;52.512;13.448;2022-07-01T07:12:23;14.25;;;12.93;;
63218;SDS011;49320;52.512;13.448;2022-07-01T07:14:50;14.07;;;12.27;;
63218;SDS011;49320;52.512;13.448;2022-07-01T07:17:17;13.27;;;12.07;;
63218;SDS011;49320;52.512;13.448;2022-07-01T07:19:44;13.68;;;12.38;;
63218;SDS011;49320;52.512;13.448;2022-07-01T07:22:10;14.85;;;13.45;;
63218;SDS011;49320;52.512;13.448;2022-07-01T07:24:37;14.07;;;12.68;;
63218;SDS011;49320;52.512;13.448;2022-07-01T07:27:05;14.85;;;12.55;;
63218;SDS011;49320;52.512;13.448;2022-07-01T07:29:32;13.05;;;11.85;;
63218;SDS011;49320;52.512;13.448;2022-07-01T07:31:59;13.80;;;12.60;;
63218;SDS011;49320;52.512;13.448;2022-07-01T07:34:26;13.88;;;12.57;;
63218;SDS011;49320;52.512;13.448;2022-07-01T07:36:53;13.63;;;12.32;;
63218;SDS011;49320;52.512;13.448;2022-07-01T07:39:20;13.45;;;12.20;;
63218;SDS011;49320;52.512;13.448;2022-07-01T07:41:47;13.73;;;12.48;;
63218;SDS011;49320;52.512;13.448;2022-07-01T07:44:15;12.98;;;11.77;;
63218;SDS011;49320;52.512;13.448;2022-07-01T07:46:42;12.70;;;11.35;;
63218;SDS011;49320;52.512;13.448;2022-07-01T07:49:09;11.70;;;10.60;;
63218;SDS011;49320;52.512;13.448;2022-07-01T07:51:36;10.98;;;9.88;;
63218;SDS011;49320;52.512;13.448;2022-07-01T07:54:03;11.25;;;10.25;;
63218;SDS011;49320;52.512;13.448;2022-07-01T07:56:30;10.18;;;9.27;;
63218;SDS011;49320;52.512;13.448;2022-07-01T07:58:57;10.07;;;9.15;;
63218;SDS011;49320;52.512;13.448;2022-07-01T08:01:25;10.70;;;8.68;;
63218;SDS011;49320;52.512;13.448;2022-07-01T08:03:52;9.68;;;8.77;;
63218;SDS011;49320;52.512;13.448;2022-07-01T08:06:19;11.13;;;9.98;;
63218;SDS011;49320;52.512;13.448;2022-07-01T08:08:46;10.95;;;9.70;;
63218;SDS011;49320;52.512;13.448;2022-07-01T08:11:13;10.98;;;9.98;;
63218;SDS011;49320;52.512;13.448;2022-07-01T08:13:40;10.13;;;9.18;;
63218;SDS011;49320;52.512;13.448;2022-07-01T08:16:07;9.80;;;8.90;;
63218;SDS011;49320;52.512;13.448;2022-07-01T08:18:35;9.73;;;8.82;;
63218;SDS011;49320;52.512;13.448;2022-07-01T08:21:02;9.52;;;8.63;;
63218;SDS011;49320;52.512;13.448;2022-07-01T08:23:29;9.40;;;8.57;;
63218;SDS011;49320;52.512;13.448;2022-07-01T08:25:56;8.75;;;7.95;;
63218;SDS011;49320;52.512;13.448;2022-07-01T08:28:24;9.48;;;8.45;;
63218;SDS011;49320;52.512;13.448;2022-07-01T08:30:50;9.55;;;8.68;;
63218;SDS011;49320;52.512;13.448;2022-07-01T08:33:18;8.90;;;8.07;;
63218;SDS011;49320;52.512;13.448;2022-07-01T08:35:45;8.40;;;7.60;;
63218;SDS011;49320;52.512;13.448;2022-07-01T08:38:13;8.20;;;7.43;;
63218;SDS011;49320;52.512;13.448;2022-07-01T08:40:42;8.13;;;7.22;;
63218;SDS011;49320;52.512;13.448;2022-07-01T08:43:09;8.50;;;7.78;;
63218;SDS011;49320;52.512;13.448;2022-07-01T08:45:36;8.88;;;8.07;;
63218;SDS011;49320;52.512;13.448;2022-07-01T08:48:04;7.70;;;7.05;;
63218;SDS011;49320;52.512;13.448;2022-07-01T08:50:36;8.18;;;7.38;;
63218;SDS011;49320;52.512;13.448;2022-07-01T08:53:07;8.73;;;7.93;;
63218;SDS011;49320;52.512;13.448;2022-07-01T08:55:36;8.65;;;7.85;;
63218;SDS011;49320;52.512;13.448;2022-07-01T08:58:24;9.13;;;8.32;;
63218;SDS011;49320;52.512;13.448;2022-07-01T09:00:53;9.02;;;8.23;;
63218;SDS011;49320;52.512;13.448;2022-07-01T09:03:39;9.88;;;8.75;;
63218;SDS011;49320;52.512;13.448;2022-07-01T09:06:15;8.95;;;8.13;;
63218;SDS011;49320;52.512;13.448;2022-07-01T09:08:48;8.55;;;7.85;;
63218;SDS011;49320;52.512;13.448;2022-07-01T09:11:19;9.35;;;8.48;;
63218;SDS011;49320;52.512;13.448;2022-07-01T09:14:13;9.18;;;8.27;;
63218;SDS011;49320;52.512;13.448;2022-07-01T09:16:42;9.48;;;8.30;;
63218;SDS011;49320;52.512;13.448;2022-07-01T09:19:18;9.43;;;8.52;;
63218;SDS011;49320;52.512;13.448;2022-07-01T09:21:47;8.80;;;8.00;;
63218;SDS011;49320;52.512;13.448;2022-07-01T09:24:35;9.05;;;8.15;;
63218;SDS011;49320;52.512;13.448;2022-07-01T09:27:08;9.77;;;8.07;;
63218;SDS011;49320;52.512;13.448;2022-07-01T09:29:50;7.90;;;7.22;;
63218;SDS011;49320;52.512;13.448;2022-07-01T09:32:21;9.48;;;7.57;;
63218;SDS011;49320;52.512;13.448;2022-07-01T09:34:50;5.80;;;5.05;;
63218;SDS011;49320;52.512;13.448;2022-07-01T09:37:23;6.07;;;3.72;;
63218;SDS011;49320;52.512;13.448;2022-07-01T09:39:52;3.85;;;2.85;;
63218;SDS011;49320;52.512;13.448;2022-07-01T09:42:23;3.28;;;2.22;;
63218;SDS011;49320;52.512;13.448;2022-07-01T09:44:58;3.05;;;1.92;;
63218;SDS011;49320;52.512;13.448;2022-07-01T09:47:33;2.17;;;1.40;;
63218;SDS011;49320;52.512;13.448;2022-07-01T09:50:02;5.13;;;1.65;;
63218;SDS011;49320;52.512;13.448;2022-07-01T09:52:31;2.45;;;1.50;;
63218;SDS011;49320;52.512;13.448;2022-07-01T09:55:02;3.00;;;1.40;;
63218;SDS011;49320;52.512;13.448;2022-07-01T09:57:31;1.30;;;1.10;;
63218;SDS011;49320;52.512;13.448;2022-07-01T09:59:58;1.75;;;1.00;;
63218;SDS011;49320;52.512;13.448;2022-07-01T10:02:26;2.67;;;0.93;;
63218;SDS011;49320;52.512;13.448;2022-07-01T10:05:01;3.22;;;1.05;;
63218;SDS011;49320;52.512;13.448;2022-07-01T10:07:44;1.92;;;1.20;;
63218;SDS011;49320;52.512;13.448;2022-07-01T10:10:44;2.88;;;0.98;;
63218;SDS011;49320;52.512;13.448;2022-07-01T10:13:24;1.40;;;0.90;;
63218;SDS011;49320;52.512;13.448;2022-07-01T10:15:54;1.60;;;1.13;;
63218;SDS011;49320;52.512;13.448;2022-07-01T10:18:23;1.58;;;1.00;;
63218;SDS011;49320;52.512;13.448;2022-07-01T10:20:53;7.60;;;1.35;;
63218;SDS011;49320;52.512;13.448;2022-07-01T10:23:44;1.48;;;1.15;;
63218;SDS011;49320;52.512;13.448;2022-07-01T10:26:10;2.70;;;1.25;;
63218;SDS011;49320;52.512;13.448;2022-07-01T10:31:10;2.00;;;0.90;;
63218;SDS011;49320;52.512;13.448;2022-07-01T10:33:57;1.35;;;1.20;;
63218;SDS011;49320;52.512;13.448;2022-07-01T10:36:27;1.27;;;1.17;;
63218;SDS011;49320;52.512;13.448;2022-07-01T10:41:33;1.92;;;1.30;;
63218;SDS011;49320;52.512;13.448;2022-07-01T10:44:39;2.75;;;1.10;;
63218;SDS011;49320;52.512;13.448;2022-07-01T10:47:35;1.83;;;1.20;;
63218;SDS011;49320;52.512;13.448;2022-07-01T10:50:05;1.60;;;1.40;;
63218;SDS011;49320;52.512;13.448;2022-07-01T10:52:59;1.08;;;0.90;;
63218;SDS011;49320;52.512;13.448;2022-07-01T10:55:48;8.43;;;1.25;;
63218;SDS011;49320;52.512;13.448;2022-07-01T10:58:36;2.47;;;1.20;;
63218;SDS011;49320;52.512;13.448;2022-07-01T11:01:04;2.38;;;1.10;;
63218;SDS011;49320;52.512;13.448;2022-07-01T11:03:38;1.80;;;1.10;;
63218;SDS011;49320;52.512;13.448;2022-07-01T11:06:06;2.83;;;1.10;;
63218;SDS011;49320;52.512;13.448;2022-07-01T11:08:34;1.10;;;1.00;;
63218;SDS011;49320;52.512;13.448;2022-07-01T11:11:01;2.63;;;1.00;;
63218;SDS011;49320;52.512;13.448;2022-07-01T11:13:30;1.13;;;1.02;;
63218;SDS011;49320;52.512;13.448;2022-07-01T11:15:59;1.20;;;0.88;;
63218;SDS011;49320;52.512;13.448;2022-07-01T11:18:26;2.33;;;0.82;;
63218;SDS011;49320;52.512;13.448;2022-07-01T11:21:02;1.25;;;0.68;;
63218;SDS011;49320;52.512;13.448;2022-07-01T11:23:34;0.88;;;0.88;;
63218;SDS011;49320;52.512;13.448;2022-07-01T11:26:06;1.13;;;0.70;;
63218;SDS011;49320;52.512;13.448;2022-07-01T11:28:38;0.98;;;0.60;;
63218;SDS011;49320;52.512;13.448;2022-07-01T11:31:06;0.45;;;0.45;;
63218;SDS011;49320;52.512;13.448;2022-07-01T11:33:34;0.77;;;0.50;;
63218;SDS011;49320;52.512;13.448;2022-07-01T11:36:02;1.20;;;0.60;;
63218;SDS011;49320;52.512;13.448;2022-07-01T11:38:48;0.57;;;0.52;;
63218;SDS011;49320;52.512;13.448;2022-07-01T11:41:33;0.80;;;0.63;;
63218;SDS011;49320;52.512;13.448;2022-07-01T11:44:00;1.83;;;0.60;;
63218;SDS011;49320;52.512;13.448;2022-07-01T11:46:31;1.45;;;0.80;;
63218;SDS011;49320;52.512;13.448;2022-07-01T11:48:58;2.05;;;0.82;;
63218;SDS011;49320;52.512;13.448;2022-07-01T11:51:25;1.33;;;0.63;;
63218;SDS011;49320;52.512;13.448;2022-07-01T11:53:53;0.65;;;0.52;;
63218;SDS011;49320;52.512;13.448;2022-07-01T11:56:27;1.42;;;0.80;;
63218;SDS011;49320;52.512;13.448;2022-07-01T11:59:00;0.93;;;0.77;;
63218;SDS011;49320;52.512;13.448;2022-07-01T12:01:29;1.05;;;0.70;;
63218;SDS011;49320;52.512;13.448;2022-07-01T12:04:03;0.90;;;0.77;;
63218;SDS011;49320;52.512;13.448;2022-07-01T12:06:34;0.85;;;0.68;;
63218;SDS011;49320;52.512;13.448;2022-07-01T12:09:04;1.02;;;0.63;;
63218;SDS011;49320;52.512;13.448;2022-07-01T12:11:31;0.88;;;0.80;;
63218;SDS011;49320;52.512;13.448;2022-07-01T12:14:04;1.08;;;0.77;;
63218;SDS011;49320;52.512;13.448;2022-07-01T12:16:38;0.80;;;0.80;;
63218;SDS011;49320;52.512;13.448;2022-07-01T12:19:07;0.93;;;0.80;;
63218;SDS011;49320;52.512;13.448;2022-07-01T12:21:54;2.00;;;1.40;;
63218;SDS011;49320;52.512;13.448;2022-07-01T12:24:24;1.92;;;1.23;;
63218;SDS011;49320;52.512;13.448;2022-07-01T12:26:53;2.00;;;1.55;;
63218;SDS011;49320;52.512;13.448;2022-07-01T12:32:21;1.90;;;1.70;;
63218;SDS011;49320;52.512;13.448;2022-07-01T12:35:00;2.00;;;1.80;;
63218;SDS011;49320;52.512;13.448;2022-07-01T12:37:33;2.10;;;1.83;;
63218;SDS011;49320;52.512;13.448;2022-07-01T12:40:06;3.97;;;1.90;;
63218;SDS011;49320;52.512;13.448;2022-07-01T12:42:46;2.17;;;1.98;;
63218;SDS011;49320;52.512;13.448;2022-07-01T12:45:17;2.63;;;2.17;;
63218;SDS011;49320;52.512;13.448;2022-07-01T12:47:51;2.20;;;2.00;;
63218;SDS011;49320;52.512;13.448;2022-07-01T12:50:28;2.50;;;1.80;;
63218;SDS011;49320;52.512;13.448;2022-07-01T12:53:06;2.40;;;2.20;;
63218;SDS011;49320;52.512;13.448;2022-07-01T12:58:09;2.17;;;1.98;;
63218;SDS011;49320;52.512;13.448;2022-07-01T13:00:41;2.40;;;2.20;;
63218;SDS011;49320;52.512;13.448;2022-07-01T13:03:13;2.40;;;2.20;;
63218;SDS011;49320;52.512;13.448;2022-07-01T13:05:40;3.95;;;2.08;;
63218;SDS011;49320;52.512;13.448;2022-07-01T13:08:08;3.28;;;2.70;;
63218;SDS011;49320;52.512;13.448;2022-07-01T13:10:36;2.55;;;2.35;;
63218;SDS011;49320;52.512;13.448;2022-07-01T13:13:04;2.50;;;2.13;;
63218;SDS011;49320;52.512;13.448;2022-07-01T13:15:31;2.30;;;1.95;;
63218;SDS011;49320;52.512;13.448;2022-07-01T13:17:59;3.00;;;2.30;;
63218;SDS011;49320;52.512;13.448;2022-07-01T13:20:26;2.95;;;2.35;;
63218;SDS011;49320;52.512;13.448;2022-07-01T13:22:54;2.28;;;2.08;;
63218;SDS011;49320;52.512;13.448;2022-07-01T13:25:20;2.33;;;1.90;;
63218;SDS011;49320;52.512;13.448;2022-07-01T13:27:48;2.55;;;2.33;;
63218;SDS011;49320;52.512;13.448;2022-07-01T13:30:17;2.13;;;1.90;;
63218;SDS011;49320;52.512;13.448;2022-07-01T13:32:45;2.40;;;2.20;;
63218;SDS011;49320;52.512;13.448;2022-07-01T13:35:12;3.00;;;2.17;;
63218;SDS011;49320;52.512;13.448;2022-07-01T13:37:41;2.30;;;2.00;;
63218;SDS011;49320;52.512;13.448;2022-07-01T13:40:08;4.70;;;1.95;;
63218;SDS011;49320;52.512;13.448;2022-07-01T13:42:36;2.47;;;1.95;;
63218;SDS011;49320;52.512;13.448;2022-07-01T13:45:04;2.90;;;2.03;;
63218;SDS011;49320;52.512;13.448;2022-07-01T13:47:32;2.67;;;2.47;;
63218;SDS011;49320;52.512;13.448;2022-07-01T13:49:59;2.38;;;2.17;;
63218;SDS011;49320;52.512;13.448;2022-07-01T13:52:26;2.75;;;2.20;;
63218;SDS011;49320;52.512;13.448;2022-07-01T13:54:57;1.80;;;1.70;;
63218;SDS011;49320;52.512;13.448;2022-07-01T13:57:24;2.63;;;1.70;;
63218;SDS011;49320;52.512;13.448;2022-07-01T13:59:52;2.08;;;1.83;;
63218;SDS011;49320;52.512;13.448;2022-07-01T14:02:20;1.80;;;1.70;;
63218;SDS011;49320;52.512;13.448;2022-07-01T14:04:47;1.88;;;1.70;;
63218;SDS011;49320;52.512;13.448;2022-07-01T14:07:14;2.40;;;1.70;;
63218;SDS011;49320;52.512;13.448;2022-07-01T14:09:42;2.25;;;1.90;;
63218;SDS011;49320;52.512;13.448;2022-07-01T14:12:10;2.05;;;1.80;;
63218;SDS011;49320;52.512;13.448;2022-07-01T14:14:48;1.55;;;1.42;;
63218;SDS011;49320;52.512;13.448;2022-07-01T14:17:15;1.80;;;1.70;;
63218;SDS011;49320;52.512;13.448;2022-07-01T14:19:42;2.03;;;1.60;;
63218;SDS011;49320;52.512;13.448;2022-07-01T14:22:09;1.58;;;1.48;;
63218;SDS011;49320;52.512;13.448;2022-07-01T14:24:36;1.70;;;1.60;;
63218;SDS011;49320;52.512;13.448;2022-07-01T14:27:03;1.98;;;1.83;;
63218;SDS011;49320;52.512;13.448;2022-07-01T14:29:30;1.70;;;1.60;;
63218;SDS011;49320;52.512;13.448;2022-07-01T14:31:57;1.67;;;1.55;;
63218;SDS011;49320;52.512;13.448;2022-07-01T14:34:26;2.03;;;1.63;;
63218;SDS011;49320;52.512;13.448;2022-07-01T14:36:53;1.73;;;1.42;;
63218;SDS011;49320;52.512;13.448;2022-07-01T14:39:20;1.60;;;1.50;;
63218;SDS011;49320;52.512;13.448;2022-07-01T14:41:46;1.30;;;1.20;;
63218;SDS011;49320;52.512;13.448;2022-07-01T14:44:21;1.63;;;1.45;;
63218;SDS011;49320;52.512;13.448;2022-07-01T14:46:48;1.42;;;1.33;;
63218;SDS011;49320;52.512;13.448;2022-07-01T14:49:17;1.65;;;1.55;;